Time;durP1;ratioP1;P1;durP2;ratioP2;P2;SDS_P1;SDS_P2;PMS_P1;PMS_P2;Temp;Humidity;BMP_temperature;BMP_pressure;BME280_temperature;BME280_humidity;BME280_pressure;Samples;Min_cycle;Max_cycle;Signal;HPM_P1;HPM_P2
2023/10/08 00:01:56;;;;;;;3.60;1.50;;;;;;;9.90;89.86;99577.48;217575;1257;139822;-74
2023/10/08 00:07:02;;;;;;;1.90;1.70;;;;;;;9.87;89.77;99560.02;217118;1262;140584;-73
2023/10/08 00:12:08;;;;;;;1.80;1.00;;;;;;;9.83;89.82;99560.94;218404;1262;140000;-75
2023/10/08 00:17:13;;;;;;;1.80;1.30;;;;;;;9.79;90.00;99579.75;218252;1262;141171;-74
2023/10/08 00:22:20;;;;;;;4.70;1.40;;;;;;;9.81;90.08;99586.98;219242;1261;140303;-77
2023/10/08 00:27:24;;;;;;;5.10;2.00;;;;;;;9.83;90.10;99586.55;218505;1261;140442;-72
2023/10/08 00:32:30;;;;;;;3.00;1.40;;;;;;;9.83;89.93;99565.41;220201;1258;140057;-73
2023/10/08 00:37:35;;;;;;;4.70;1.30;;;;;;;9.84;89.92;99555.46;218534;1260;139377;-71
2023/10/08 00:42:45;;;;;;;2.30;1.90;;;;;;;9.82;89.86;99548.25;219569;1262;139609;-74
2023/10/08 00:47:55;;;;;;;4.00;1.60;;;;;;;9.84;90.01;99550.73;220072;1261;138893;-78
2023/10/08 00:53:09;;;;;;;3.80;1.60;;;;;;;9.86;90.06;99562.27;217914;1258;141259;-74
2023/10/08 00:58:23;;;;;;;4.50;1.60;;;;;;;9.89;90.11;99580.65;218591;1259;141976;-76
2023/10/08 01:03:29;;;;;;;4.30;1.50;;;;;;;9.90;90.01;99575.30;217399;1258;139782;-78
2023/10/08 01:08:36;;;;;;;5.40;3.30;;;;;;;9.89;90.14;99571.56;217826;1262;141012;-75
2023/10/08 01:13:45;;;;;;;;;;;;;;;9.88;90.39;99562.92;218578;1261;140370;-74
2023/10/08 01:18:54;;;;;;;4.00;2.30;;;;;;;9.85;90.52;99535.52;217974;1263;127721;-76
2023/10/08 01:24:07;;;;;;;8.30;2.80;;;;;;;9.84;90.53;99541.90;217976;1261;139846;-75
2023/10/08 01:29:21;;;;;;;4.70;2.50;;;;;;;9.86;90.67;99562.98;217357;1261;140346;-74
2023/10/08 01:34:35;;;;;;;10.10;4.30;;;;;;;9.88;90.76;99558.02;217563;1258;140239;-73
2023/10/08 01:39:42;;;;;;;3.90;2.40;;;;;;;9.89;90.81;99576.72;217779;1262;140418;-76
2023/10/08 01:44:50;;;;;;;6.30;4.10;;;;;;;9.90;90.89;99579.36;218122;1257;139612;-72
2023/10/08 01:50:04;;;;;;;9.00;4.00;;;;;;;9.91;90.98;99554.73;218133;1261;139703;-73
2023/10/08 01:55:13;;;;;;;6.00;3.50;;;;;;;9.92;91.01;99571.30;217191;1262;140770;-72
2023/10/08 02:00:19;;;;;;;9.40;4.20;;;;;;;9.93;91.08;99579.63;217543;1262;140525;-72
2023/10/08 02:05:25;;;;;;;10.80;4.20;;;;;;;9.93;90.99;99584.05;217215;1257;141836;-71
2023/10/08 02:10:30;;;;;;;7.30;5.10;;;;;;;9.92;91.02;99588.95;218610;1257;139918;-71
2023/10/08 02:15:36;;;;;;;7.40;4.30;;;;;;;9.93;91.24;99582.78;217567;1260;141986;-73
2023/10/08 02:20:41;;;;;;;10.80;5.60;;;;;;;9.93;91.24;99588.10;217660;1257;139432;-72
2023/10/08 02:25:47;;;;;;;9.00;6.20;;;;;;;9.95;91.18;99600.29;218225;1257;139697;-81
2023/10/08 02:30:55;;;;;;;13.90;5.70;;;;;;;9.96;91.20;99597.44;218291;1257;139583;-82
2023/10/08 02:36:04;;;;;;;12.20;7.10;;;;;;;9.97;91.33;99629.14;218633;1257;140441;-82
2023/10/08 02:41:08;;;;;;;;;;;;;;;9.98;91.37;99640.83;217242;1260;139653;-72
2023/10/08 02:46:15;;;;;;;10.30;5.90;;;;;;;9.94;91.30;99650.76;220373;1257;126109;-75
2023/10/08 02:51:20;;;;;;;9.40;5.90;;;;;;;9.96;91.47;99659.38;217404;1257;140489;-76
2023/10/08 02:56:25;;;;;;;10.30;4.90;;;;;;;9.97;91.39;99667.34;218946;1257;139617;-77
2023/10/08 03:01:33;;;;;;;17.70;7.50;;;;;;;9.98;91.43;99672.05;217721;1262;142022;-77
2023/10/08 03:06:41;;;;;;;8.70;6.10;;;;;;;10.01;91.36;99657.09;218737;1259;246012;-80
2023/10/08 03:11:48;;;;;;;7.80;6.00;;;;;;;10.02;91.36;99665.86;218537;1257;139516;-76
2023/10/08 03:16:53;;;;;;;;;;;;;;;10.02;91.17;99678.48;217155;1261;139878;-79
2023/10/08 03:22:03;;;;;;;12.20;7.50;;;;;;;9.98;91.34;99695.52;218411;1259;126330;-80
2023/10/08 03:27:15;;;;;;;9.50;6.00;;;;;;;9.96;91.31;99695.96;217528;1261;140551;-78
2023/10/08 03:32:26;;;;;;;9.80;5.30;;;;;;;9.92;91.13;99696.44;217527;1263;139973;-81
2023/10/08 03:37:41;;;;;;;7.30;4.30;;;;;;;9.86;90.81;99699.02;217662;1257;140688;-82
2023/10/08 03:42:49;;;;;;;8.50;4.90;;;;;;;9.81;90.89;99723.02;217402;1262;140046;-82
2023/10/08 03:48:11;;;;;;;6.50;4.80;;;;;;;9.78;90.90;99728.72;218028;1259;139952;-75
2023/10/08 03:53:16;;;;;;;9.20;5.80;;;;;;;9.78;90.95;99711.63;217664;1261;140637;-75
2023/10/08 03:58:31;;;;;;;8.10;5.00;;;;;;;9.74;90.82;99714.89;217873;1263;140495;-79
2023/10/08 04:14:16;;;;;;;7.30;4.30;;;;;;;9.67;90.82;99764.02;219135;1259;139846;-80
2023/10/08 04:19:32;;;;;;;14.20;5.80;;;;;;;9.64;90.89;99756.44;218232;1259;139865;-80
2023/10/08 04:24:38;;;;;;;13.30;5.90;;;;;;;9.64;90.62;99763.13;218572;1259;139466;-81
2023/10/08 04:29:49;;;;;;;7.00;5.50;;;;;;;9.61;90.51;99777.63;219600;1259;140306;-79
2023/10/08 04:34:57;;;;;;;9.50;5.10;;;;;;;9.55;90.30;99795.88;219714;1261;140958;-77
2023/10/08 04:40:05;;;;;;;8.10;4.00;;;;;;;9.48;89.98;99806.94;220024;1258;139282;-77
2023/10/08 04:45:13;;;;;;;9.00;4.10;;;;;;;9.39;89.78;99807.52;219055;1260;139776;-78
2023/10/08 04:50:20;;;;;;;8.80;4.90;;;;;;;9.31;89.80;99818.46;218750;1259;140871;-77
2023/10/08 04:55:29;;;;;;;6.80;5.30;;;;;;;9.24;89.83;99824.27;219120;1257;139878;-78
2023/10/08 05:06:09;;;;;;;7.90;4.40;;;;;;;9.11;89.53;99853.17;218113;1257;140125;-74
2023/10/08 05:11:24;;;;;;;6.20;3.70;;;;;;;9.04;89.34;99865.77;217446;1260;140122;-73
2023/10/08 05:16:43;;;;;;;7.40;3.70;;;;;;;8.95;89.15;99871.83;218294;1259;140605;-72
2023/10/08 05:22:01;;;;;;;5.60;3.40;;;;;;;8.88;89.01;99882.40;217345;1259;140079;-73
2023/10/08 05:32:44;;;;;;;3.10;1.70;;;;;;;8.76;88.82;99916.73;217331;1259;141572;-74
2023/10/08 05:38:02;;;;;;;4.10;2.30;;;;;;;8.70;88.86;99933.16;217275;1259;139721;-73
2023/10/08 05:43:22;;;;;;;4.10;1.40;;;;;;;8.65;88.68;99945.31;218477;1259;139409;-69
2023/10/08 05:48:31;;;;;;;2.30;1.00;;;;;;;8.61;88.09;99962.34;217633;1258;140269;-80
2023/10/08 05:53:47;;;;;;;3.10;1.20;;;;;;;8.55;87.87;99980.92;217481;1260;139480;-80
2023/10/08 05:59:14;;;;;;;1.70;1.10;;;;;;;8.51;87.82;99993.29;218057;1259;140102;-76
2023/10/08 06:04:53;;;;;;;2.20;1.30;;;;;;;8.57;87.79;100011.11;217758;1260;140457;-74
2023/10/08 06:10:02;;;;;;;4.40;2.30;;;;;;;8.61;87.59;100027.09;218087;1259;139995;-72
2023/10/08 06:15:07;;;;;;;2.40;1.60;;;;;;;8.61;87.86;100045.52;219310;1259;141101;-72
2023/10/08 06:20:16;;;;;;;1.60;1.30;;;;;;;8.55;86.89;100057.77;218959;1260;140120;-70
2023/10/08 06:25:23;;;;;;;2.00;1.40;;;;;;;8.48;86.25;100064.11;219527;1259;140723;-72
2023/10/08 06:30:34;;;;;;;1.30;0.50;;;;;;;8.43;85.94;100079.37;220027;1259;140208;-75
2023/10/08 06:35:44;;;;;;;1.30;0.80;;;;;;;8.44;85.84;100089.02;219576;1257;139904;-77
2023/10/08 06:40:52;;;;;;;1.30;0.60;;;;;;;8.46;84.91;100092.48;218814;1257;139805;-75
2023/10/08 06:46:00;;;;;;;0.70;0.60;;;;;;;8.52;84.53;100107.87;219240;1257;139732;-77
2023/10/08 06:51:13;;;;;;;0.70;0.70;;;;;;;8.69;83.77;100123.58;217279;1263;139947;-80
2023/10/08 06:56:19;;;;;;;2.10;0.90;;;;;;;9.37;83.80;100130.73;217772;1258;140659;-74
2023/10/08 07:01:37;;;;;;;1.80;0.90;;;;;;;10.69;83.47;100139.73;217930;1257;140561;-77
2023/10/08 07:06:46;;;;;;;2.20;1.90;;;;;;;12.17;81.90;100157.70;217462;1257;141134;-76
2023/10/08 07:11:55;;;;;;;1.70;0.60;;;;;;;13.35;79.84;100165.73;218633;1258;139277;-75
2023/10/08 07:17:01;;;;;;;0.80;0.80;;;;;;;14.38;77.46;100179.30;217726;1261;139576;-77
2023/10/08 07:22:23;;;;;;;2.50;1.10;;;;;;;14.94;75.67;100185.24;217770;1259;139494;-78
2023/10/08 07:27:31;;;;;;;0.70;0.60;;;;;;;15.31;74.12;100194.63;217327;1258;140317;-77
2023/10/08 07:32:38;;;;;;;5.90;0.40;;;;;;;15.29;72.05;100202.08;217953;1258;140151;-73
2023/10/08 07:37:44;;;;;;;1.10;1.00;;;;;;;15.17;70.95;100209.38;217412;1259;219917;-77
2023/10/08 07:42:51;;;;;;;1.20;0.70;;;;;;;14.99;69.80;100216.02;217897;1258;139462;-78
2023/10/08 07:47:58;;;;;;;;;;;;;;;14.64;68.59;100224.02;217403;1262;139136;-76
2023/10/08 07:53:04;;;;;;;1.60;0.80;;;;;;;14.35;67.77;100225.08;217516;1259;126741;-72
2023/10/08 07:58:11;;;;;;;1.10;0.80;;;;;;;13.99;67.17;100234.19;218205;1258;140678;-75
2023/10/08 08:03:15;;;;;;;1.00;0.60;;;;;;;13.86;66.98;100237.68;218566;1258;139265;-78
2023/10/08 08:08:22;;;;;;;4.60;0.80;;;;;;;13.69;66.24;100255.58;218421;1259;140129;-80
2023/10/08 08:13:28;;;;;;;0.50;0.50;;;;;;;13.33;64.89;100255.45;217694;1259;140699;-73
2023/10/08 08:18:34;;;;;;;0.90;0.40;;;;;;;13.22;64.76;100258.73;219110;1257;139771;-71
2023/10/08 08:23:38;;;;;;;1.10;0.60;;;;;;;13.00;64.37;100251.02;219605;1257;139432;-70
2023/10/08 08:28:46;;;;;;;0.30;0.30;;;;;;;13.02;64.14;100264.23;218695;1257;140286;-70
2023/10/08 08:33:53;;;;;;;1.10;0.50;;;;;;;12.96;63.15;100267.52;217256;1258;139492;-70
2023/10/08 08:38:58;;;;;;;1.90;0.40;;;;;;;12.89;63.51;100267.91;217829;1259;141166;-69
2023/10/08 08:44:06;;;;;;;2.00;1.00;;;;;;;13.00;63.15;100267.77;218730;1259;139702;-68
2023/10/08 08:49:12;;;;;;;3.70;0.50;;;;;;;13.04;62.77;100270.46;217601;1263;139228;-69
2023/10/08 08:54:17;;;;;;;0.50;0.50;;;;;;;13.04;62.42;100280.77;219429;1259;139234;-73
2023/10/08 08:59:30;;;;;;;1.00;0.50;;;;;;;12.90;61.47;100290.46;218421;1258;139270;-68
2023/10/08 09:04:37;;;;;;;2.10;0.60;;;;;;;12.89;61.50;100289.70;218565;1262;139275;-68
2023/10/08 09:09:44;;;;;;;0.90;0.80;;;;;;;12.90;60.79;100296.25;217836;1257;141441;-69
2023/10/08 09:14:49;;;;;;;0.70;0.40;;;;;;;12.91;60.57;100303.11;218468;1257;139879;-72
2023/10/08 09:19:53;;;;;;;0.80;0.50;;;;;;;13.04;60.22;100301.15;218142;1257;139194;-68
2023/10/08 09:25:00;;;;;;;0.10;0.10;;;;;;;13.15;60.06;100304.69;216989;1258;1030139;-70
2023/10/08 09:30:08;;;;;;;0.70;0.70;;;;;;;13.20;59.88;100309.77;217807;1259;140431;-69
2023/10/08 09:35:14;;;;;;;3.00;0.90;;;;;;;13.40;59.81;100319.99;218145;1258;139133;-70
2023/10/08 09:40:21;;;;;;;1.50;0.60;;;;;;;13.46;58.86;100331.55;217113;1259;140987;-72
2023/10/08 09:45:28;;;;;;;0.40;0.40;;;;;;;13.44;58.54;100339.72;217553;1257;139246;-68
2023/10/08 09:50:37;;;;;;;;;;;;;;;13.42;58.07;100347.88;217923;1257;141657;-68
2023/10/08 09:55:48;;;;;;;2.60;0.50;;;;;;;13.49;58.01;100348.91;219112;1259;126776;-80
2023/10/08 10:00:57;;;;;;;1.50;0.70;;;;;;;13.66;57.71;100355.35;217227;1256;140053;-69
2023/10/08 10:06:09;;;;;;;0.90;0.80;;;;;;;13.74;57.18;100352.93;217550;1260;139374;-69
2023/10/08 10:11:15;;;;;;;1.60;0.40;;;;;;;13.88;57.02;100352.67;218611;1257;140981;-72
2023/10/08 10:16:22;;;;;;;1.40;0.70;;;;;;;14.03;56.44;100357.95;217997;1260;140060;-70
2023/10/08 10:21:32;;;;;;;4.60;0.90;;;;;;;13.98;55.46;100360.20;217711;1258;140109;-72
2023/10/08 10:26:40;;;;;;;0.60;0.60;;;;;;;13.89;54.75;100359.66;217802;1259;141502;-72
2023/10/08 10:31:53;;;;;;;3.40;0.50;;;;;;;13.83;54.19;100361.59;218153;1259;138895;-70
2023/10/08 10:37:19;;;;;;;0.40;0.40;;;;;;;13.83;53.89;100372.27;217934;1259;140288;-69
2023/10/08 10:42:26;;;;;;;0.50;0.40;;;;;;;13.90;53.77;100363.96;219081;1258;140250;-71
2023/10/08 10:47:42;;;;;;;0.60;0.60;;;;;;;13.98;53.71;100377.15;219585;1257;141218;-71
2023/10/08 10:52:53;;;;;;;0.30;0.30;;;;;;;14.09;52.91;100374.85;217774;1258;138981;-71
2023/10/08 10:58:11;;;;;;;3.50;0.80;;;;;;;14.17;52.45;100379.02;217561;1260;140176;-69
2023/10/08 11:03:23;;;;;;;2.90;0.50;;;;;;;14.16;51.90;100383.67;217399;1260;141019;-70
2023/10/08 11:08:34;;;;;;;1.60;0.80;;;;;;;14.04;51.20;100386.69;217358;1259;140087;-70
2023/10/08 11:13:40;;;;;;;0.40;0.30;;;;;;;14.08;51.34;100386.74;217428;1259;139455;-72
2023/10/08 11:18:50;;;;;;;0.50;0.30;;;;;;;14.05;50.72;100388.36;217926;1258;139786;-70
2023/10/08 11:23:58;;;;;;;1.70;0.70;;;;;;;13.73;50.68;100384.89;217457;1257;139897;-74
2023/10/08 11:29:13;;;;;;;0.50;0.50;;;;;;;13.55;50.61;100387.23;217703;1261;142701;-70
2023/10/08 11:34:23;;;;;;;1.00;0.30;;;;;;;13.60;50.58;100384.98;217415;1262;139445;-70
2023/10/08 11:39:31;;;;;;;0.40;0.40;;;;;;;13.62;50.55;100389.12;217396;1259;140238;-70
2023/10/08 11:44:39;;;;;;;;;;;;;;;13.66;50.26;100384.40;217533;1259;139245;-78
2023/10/08 11:50:09;;;;;;;0.50;0.30;;;;;;;13.58;49.95;100387.38;218301;1258;127807;-77
2023/10/08 11:55:26;;;;;;;1.00;0.90;;;;;;;13.63;49.77;100383.56;217980;1258;139904;-74
2023/10/08 12:00:32;;;;;;;0.90;0.70;;;;;;;13.73;49.70;100379.11;218036;1259;138963;-77
2023/10/08 12:05:47;;;;;;;6.70;1.40;;;;;;;13.76;49.48;100379.59;218987;1259;140295;-73
2023/10/08 12:10:55;;;;;;;0.80;0.70;;;;;;;13.75;49.21;100383.86;218204;1262;139036;-72
2023/10/08 12:16:06;;;;;;;0.50;0.50;;;;;;;13.84;48.93;100390.72;217504;1260;139515;-73
2023/10/08 12:21:15;;;;;;;1.00;0.30;;;;;;;13.69;48.30;100395.27;218345;1262;141070;-74
2023/10/08 12:26:20;;;;;;;4.70;1.00;;;;;;;13.59;47.91;100397.09;217994;1258;139388;-75
2023/10/08 12:31:28;;;;;;;0.90;0.60;;;;;;;13.57;47.74;100388.27;218370;1260;140794;-73
2023/10/08 12:36:36;;;;;;;1.00;0.40;;;;;;;13.63;48.26;100386.04;218100;1259;140565;-72
2023/10/08 12:41:45;;;;;;;0.50;0.40;;;;;;;13.72;47.97;100389.28;218623;1259;139949;-76
2023/10/08 12:46:53;;;;;;;2.00;0.80;;;;;;;13.69;47.78;100398.48;219347;1262;139211;-77
2023/10/08 12:52:02;;;;;;;1.30;0.70;;;;;;;13.51;47.30;100404.77;218278;1259;139047;-83
2023/10/08 12:57:16;;;;;;;0.50;0.30;;;;;;;13.50;47.23;100407.36;219005;1258;139872;-83
2023/10/08 13:02:27;;;;;;;1.00;0.70;;;;;;;13.50;46.99;100408.17;218458;1262;139981;-74
2023/10/08 13:07:39;;;;;;;0.30;0.30;;;;;;;13.54;47.24;100409.75;218078;1262;140870;-72
2023/10/08 13:12:44;;;;;;;1.30;0.70;;;;;;;13.48;47.11;100418.95;217245;1257;138819;-71
2023/10/08 13:17:51;;;;;;;1.80;0.80;;;;;;;13.52;47.71;100422.09;217922;1262;140106;-77
2023/10/08 13:22:57;;;;;;;0.70;0.30;;;;;;;13.61;47.60;100416.54;217402;1262;139923;-81
2023/10/08 13:28:07;;;;;;;1.00;0.40;;;;;;;13.42;47.56;100420.33;217395;1263;139151;-73
2023/10/08 13:33:16;;;;;;;1.50;0.70;;;;;;;12.87;47.47;100427.55;217542;1259;139464;-70
2023/10/08 13:38:25;;;;;;;0.60;0.60;;;;;;;12.56;47.85;100426.41;217232;1259;138865;-77
2023/10/08 13:43:35;;;;;;;2.00;0.90;;;;;;;12.46;48.40;100419.90;217345;1262;139174;-75
2023/10/08 13:48:48;;;;;;;0.40;0.40;;;;;;;12.24;48.74;100418.56;217424;1259;138788;-72
2023/10/08 13:54:02;;;;;;;0.80;0.40;;;;;;;12.10;49.37;100413.92;217666;1258;139074;-74
2023/10/08 13:59:13;;;;;;;1.30;0.90;;;;;;;12.00;49.56;100421.58;217321;1262;140061;-74
2023/10/08 14:04:30;;;;;;;1.30;0.80;;;;;;;12.29;49.72;100421.84;218199;1259;140364;-78
2023/10/08 14:09:47;;;;;;;1.40;1.00;;;;;;;12.28;49.80;100419.24;217428;1263;139179;-73
2023/10/08 14:15:16;;;;;;;;;;;;;;;;;;;;;
2023/10/08 14:20:31;;;;;;;1.70;1.00;;;;;;;12.01;50.18;100431.75;219412;1260;141710;-70
2023/10/08 14:25:44;;;;;;;1.00;0.60;;;;;;;11.88;49.70;100429.70;217874;1257;139590;-71
2023/10/08 14:30:55;;;;;;;4.70;0.60;;;;;;;11.95;49.41;100436.23;217586;1260;139055;-70
2023/10/08 14:47:01;;;;;;;0.60;0.60;;;;;;;11.67;49.02;100442.08;219106;1259;245404;-78
2023/10/08 14:52:06;;;;;;;1.30;1.20;;;;;;;11.58;49.14;100444.05;218119;1260;230745;-78
2023/10/08 14:57:14;;;;;;;1.20;0.70;;;;;;;11.45;49.20;100443.63;217170;1259;140484;-80
2023/10/08 15:02:22;;;;;;;1.40;0.30;;;;;;;11.27;49.23;100448.84;217918;1258;139897;-79
2023/10/08 15:07:28;;;;;;;2.50;0.80;;;;;;;11.17;49.51;100450.70;217453;1262;139610;-74
2023/10/08 15:12:34;;;;;;;0.70;0.60;;;;;;;11.06;49.63;100453.27;217764;1259;140219;-73
2023/10/08 15:17:43;;;;;;;2.60;0.70;;;;;;;10.94;49.49;100452.53;217872;1262;139101;-75
2023/10/08 15:22:50;;;;;;;0.30;0.30;;;;;;;10.83;49.63;100459.36;217222;1261;139023;-71
2023/10/08 15:27:59;;;;;;;0.50;0.50;;;;;;;10.69;49.62;100473.77;217652;1259;141440;-70
2023/10/08 15:33:14;;;;;;;1.40;0.60;;;;;;;10.56;49.98;100486.08;217682;1262;139989;-80
2023/10/08 15:38:25;;;;;;;1.30;1.20;;;;;;;10.45;49.83;100500.30;217425;1257;139024;-69
2023/10/08 15:43:31;;;;;;;1.00;0.60;;;;;;;10.31;49.81;100504.37;217437;1259;139164;-69
2023/10/08 15:48:39;;;;;;;2.30;0.90;;;;;;;10.15;50.03;100500.05;217328;1259;139610;-70
2023/10/08 15:53:46;;;;;;;1.30;1.00;;;;;;;10.00;50.25;100508.40;217886;1259;140262;-72
2023/10/08 15:58:55;;;;;;;14.10;6.20;;;;;;;9.86;50.33;100521.31;217430;1259;139920;-72
2023/10/08 16:04:02;;;;;;;6.00;4.00;;;;;;;9.75;50.72;100530.29;217524;1262;141394;-72
2023/10/08 16:09:10;;;;;;;3.50;2.00;;;;;;;9.61;51.17;100529.84;217553;1259;140431;-72
2023/10/08 16:14:17;;;;;;;2.50;1.90;;;;;;;9.47;51.28;100541.30;217112;1260;140022;-70
2023/10/08 16:19:26;;;;;;;3.20;1.00;;;;;;;9.33;51.49;100541.48;218496;1262;140877;-71
2023/10/08 16:24:33;;;;;;;3.80;1.20;;;;;;;9.19;52.23;100551.60;217558;1259;139365;-72
2023/10/08 16:29:41;;;;;;;4.70;2.30;;;;;;;9.03;52.36;100552.99;217920;1260;140602;-70
2023/10/08 16:34:49;;;;;;;3.20;1.40;;;;;;;8.89;52.91;100568.41;218477;1259;139107;-70
2023/10/08 16:39:56;;;;;;;1.90;1.30;;;;;;;8.69;53.53;100575.42;218851;1262;139358;-69
2023/10/08 16:45:09;;;;;;;2.00;1.60;;;;;;;8.49;53.94;100584.70;217646;1261;139398;-73
2023/10/08 16:50:21;;;;;;;2.10;1.70;;;;;;;8.32;54.37;100592.92;217556;1259;139827;-74
2023/10/08 16:55:31;;;;;;;2.60;1.90;;;;;;;8.15;55.06;100601.67;218046;1260;139109;-68
2023/10/08 17:00:44;;;;;;;3.20;1.70;;;;;;;7.97;55.29;100603.30;217349;1262;139575;-71
2023/10/08 17:05:55;;;;;;;2.50;1.90;;;;;;;7.82;55.55;100603.83;219168;1258;246184;-70
2023/10/08 17:11:11;;;;;;;3.40;1.40;;;;;;;7.69;56.23;100607.50;217448;1263;141189;-72
2023/10/08 17:16:21;;;;;;;1.50;0.90;;;;;;;7.59;57.26;100613.63;217780;1259;140135;-69
2023/10/08 17:21:29;;;;;;;4.20;2.50;;;;;;;7.45;57.64;100621.71;218020;1262;139883;-73
2023/10/08 17:26:40;;;;;;;4.40;2.10;;;;;;;7.33;58.02;100621.34;217795;1260;139415;-75
2023/10/08 17:31:48;;;;;;;4.70;1.70;;;;;;;7.23;57.71;100631.44;217279;1263;139273;-71
2023/10/08 17:36:54;;;;;;;;;;;;;;;7.11;57.80;100636.77;217508;1263;139183;-70
2023/10/08 17:42:04;;;;;;;3.50;1.80;;;;;;;6.96;58.15;100631.08;218478;1260;125303;-75
2023/10/08 17:47:10;;;;;;;2.60;2.40;;;;;;;6.87;58.05;100643.18;217896;1262;138914;-68
2023/10/08 17:52:15;;;;;;;3.30;2.10;;;;;;;6.75;58.30;100648.67;217327;1259;139148;-69
2023/10/08 17:57:20;;;;;;;2.80;1.10;;;;;;;6.65;58.91;100654.20;217241;1262;138951;-69
2023/10/08 18:02:26;;;;;;;2.00;1.80;;;;;;;6.50;59.06;100653.92;217271;1262;139635;-68
2023/10/08 18:07:32;;;;;;;10.60;2.80;;;;;;;6.36;59.43;100651.10;218371;1260;138859;-69
2023/10/08 18:12:37;;;;;;;3.90;1.70;;;;;;;6.29;59.70;100664.96;218219;1261;140012;-69
2023/10/08 18:17:45;;;;;;;2.60;2.10;;;;;;;6.21;60.02;100667.42;219509;1259;140167;-71
2023/10/08 18:22:52;;;;;;;4.70;2.90;;;;;;;6.15;59.97;100662.45;218339;1263;138984;-72
2023/10/08 18:27:59;;;;;;;6.30;1.90;;;;;;;6.11;60.57;100660.05;217620;1259;139678;-69
2023/10/08 18:33:08;;;;;;;5.80;3.50;;;;;;;6.00;60.81;100661.45;218676;1263;138766;-69
2023/10/08 18:38:15;;;;;;;4.40;3.30;;;;;;;5.86;61.05;100664.42;218382;1263;140571;-80
2023/10/08 18:43:28;;;;;;;4.10;2.50;;;;;;;5.63;61.46;100666.89;217393;1264;140169;-77
2023/10/08 18:48:37;;;;;;;8.00;3.10;;;;;;;5.43;61.90;100675.03;218267;1263;141471;-77
2023/10/08 18:53:45;;;;;;;4.60;2.90;;;;;;;5.27;62.46;100686.79;218442;1263;139471;-75
2023/10/08 18:58:51;;;;;;;7.10;2.60;;;;;;;5.14;62.67;100687.27;217406;1263;141795;-69
2023/10/08 19:03:58;;;;;;;7.50;3.50;;;;;;;5.04;63.22;100686.10;217267;1263;139903;-71
2023/10/08 19:09:04;;;;;;;8.40;3.70;;;;;;;4.95;63.45;100687.84;218014;1259;139407;-69
2023/10/08 19:14:11;;;;;;;4.90;2.70;;;;;;;4.87;64.02;100688.91;217198;1260;141470;-69
2023/10/08 19:19:19;;;;;;;5.00;2.20;;;;;;;4.78;64.18;100702.64;217824;1262;141103;-68
2023/10/08 19:24:25;;;;;;;5.20;2.20;;;;;;;4.65;64.55;100710.13;217953;1260;140326;-68
2023/10/08 19:29:34;;;;;;;3.90;2.20;;;;;;;4.52;64.48;100715.23;217676;1262;139579;-67
2023/10/08 19:34:40;;;;;;;4.20;2.70;;;;;;;4.34;64.91;100721.59;218357;1262;139766;-69
2023/10/08 19:39:46;;;;;;;7.10;2.70;;;;;;;4.20;65.49;100721.94;217161;1263;139639;-71
2023/10/08 20:40:57;;;;;;;7.00;4.20;;;;;;;2.37;68.83;100743.05;220757;1255;224526;-76
2023/10/08 20:46:04;;;;;;;11.40;5.40;;;;;;;2.24;69.04;100755.46;217587;1257;140575;-81
2023/10/08 20:51:13;;;;;;;8.60;5.30;;;;;;;2.14;69.50;100753.15;218171;1256;140367;-81
2023/10/08 20:56:19;;;;;;;6.10;3.40;;;;;;;2.12;70.01;100747.00;217996;1256;140292;-80
2023/10/08 21:01:29;;;;;;;7.60;3.50;;;;;;;2.06;69.85;100747.34;217965;1256;140906;-80
2023/10/08 21:06:33;;;;;;;5.30;2.80;;;;;;;1.94;70.03;100750.58;217954;1256;140073;-79
2023/10/08 21:11:39;;;;;;;5.50;3.60;;;;;;;1.85;70.19;100747.26;218458;1256;140429;-80
2023/10/08 21:16:46;;;;;;;4.30;2.60;;;;;;;1.74;70.24;100747.91;218015;1257;140572;-71
2023/10/08 21:21:53;;;;;;;5.40;3.30;;;;;;;1.60;70.34;100748.42;217614;1257;139330;-68
2023/10/08 21:26:59;;;;;;;8.10;4.10;;;;;;;1.47;70.23;100743.10;218199;1256;386719;-75
2023/10/08 21:32:04;;;;;;;11.90;5.40;;;;;;;1.40;70.90;100744.25;218148;1256;141864;-68
2023/10/08 21:37:09;;;;;;;13.30;6.20;;;;;;;1.34;71.03;100745.73;218508;1256;139481;-70
2023/10/08 21:42:16;;;;;;;16.00;5.80;;;;;;;1.25;71.12;100747.85;218371;1259;139927;-69
2023/10/08 21:47:21;;;;;;;14.80;6.80;;;;;;;1.20;71.62;100750.80;217763;1257;140177;-70
2023/10/08 21:52:27;;;;;;;10.80;5.10;;;;;;;1.16;71.32;100754.38;219175;1256;139648;-70
2023/10/08 21:57:34;;;;;;;5.70;3.40;;;;;;;1.10;71.67;100751.14;219441;1256;139878;-78
2023/10/08 22:02:46;;;;;;;5.20;3.20;;;;;;;1.02;71.84;100741.68;219450;1256;141012;-82
2023/10/08 22:07:51;;;;;;;6.60;5.00;;;;;;;0.94;71.77;100734.95;217966;1257;139866;-78
2023/10/08 22:12:58;;;;;;;8.40;4.00;;;;;;;0.87;72.06;100733.06;219103;1256;140410;-74
2023/10/08 22:18:07;;;;;;;7.40;4.20;;;;;;;0.81;72.45;100730.77;218612;1256;139402;-73
2023/10/08 22:23:15;;;;;;;11.60;6.70;;;;;;;0.75;72.34;100721.80;219728;1256;140273;-74
2023/10/08 22:28:21;;;;;;;9.20;5.00;;;;;;;0.76;73.04;100714.45;218872;1256;140087;-69
2023/10/08 22:33:33;;;;;;;9.00;5.50;;;;;;;0.78;72.97;100713.11;220533;1256;140843;-72
2023/10/08 22:38:39;;;;;;;6.90;5.80;;;;;;;0.71;72.87;100722.67;220436;1256;139843;-74
2023/10/08 22:47:21;;;;;;;10.50;4.10;;;;;;;0.67;72.62;100721.61;214746;1295;658090;-75
2023/10/08 22:52:29;;;;;;;7.40;3.60;;;;;;;0.60;73.44;100726.33;218213;1258;138895;-74
2023/10/08 22:57:34;;;;;;;5.70;3.40;;;;;;;0.56;73.20;100726.00;217798;1261;410450;-75
2023/10/08 23:02:41;;;;;;;6.20;3.20;;;;;;;0.53;73.31;100725.77;218354;1259;139192;-75
2023/10/08 23:07:47;;;;;;;8.20;3.70;;;;;;;0.46;73.42;100717.73;218735;1257;139088;-74
2023/10/08 23:12:54;;;;;;;5.60;3.30;;;;;;;0.43;73.80;100717.71;217802;1260;139318;-74
2023/10/08 23:17:59;;;;;;;6.30;3.40;;;;;;;0.39;74.10;100708.45;218502;1257;138730;-74
2023/10/08 23:23:06;;;;;;;9.80;4.30;;;;;;;0.35;74.17;100711.02;218644;1259;138701;-74
2023/10/08 23:28:12;;;;;;;9.90;5.60;;;;;;;0.39;74.77;100712.48;218719;1259;138541;-73
2023/10/08 23:33:18;;;;;;;10.50;4.20;;;;;;;0.37;74.57;100700.73;217769;1257;139383;-71
2023/10/08 23:38:31;;;;;;;9.20;4.40;;;;;;;0.40;75.16;100688.02;218776;1259;140017;-73
2023/10/08 23:43:41;;;;;;;10.60;4.30;;;;;;;0.47;75.77;100674.95;218580;1260;140594;-74
2023/10/08 23:48:53;;;;;;;8.70;4.00;;;;;;;0.54;75.62;100666.09;218367;1261;139792;-79
2023/10/08 23:54:01;;;;;;;8.90;5.30;;;;;;;0.60;75.91;100678.11;219236;1256;223187;-78
2023/10/08 23:59:14;;;;;;;6.70;4.70;;;;;;;0.66;76.30;100672.73;219527;1260;138993;-76
